Portada
METAR-TAF:

METAR-TAF

Aeroports :

Aeroport d'Albacete

Albacete, Espanya

latitud: 38-57N, longitud: 001-51W, altitud: 702 m

Observació

L'informe es va fer fa 22 minuts, a les 07:00 UTC
Vent 8 kt del Oest/Nord-Oest
Temperatura 6°C
Humitat 93%
Pressió 1020 hPa
Visibilitat 10 km o més
sense núvols per sota de 1500 mi sense presència de cumulonimbus.

METAR: LEAB 260700Z 30008KT CAVOK 06/05 Q1020 NOSIG

Hora: 08:22 (07:22 UTC)

Pronòstic

L'informe es va fer fa 2 hores i 22 minuts, a les 05:00 UTC
Pronòstic vàlid del 26 a les 06 UTC al 26 a les 15 UTC
Vent 10 kt del Oest/Nord-Oest
Visibilitat 10 km o més
sense núvols per sota de 1500 mi sense presència de cumulonimbus.

TAF: LEAB 260500Z 2606/2615 30010KT CAVOK

Observacions i pronòstics meteorològics de més de 4000 aeroports (METAR i TAF).

Les estacions disponibles són els punts grocs i vermells al mapa.

Posi el ratolí al punt desitjat per veure el nom de l'estació.

Feu clic per veure les observacions i els pronòstics meteorològics.

Per canviar el mapa: feu clic els botons verds amb una creu de color negre per apropar; al botó verd amb un guió per allunyar la imatge; o en les fletxes verdes per a mapes adjacents.


METAR-TAF: